North Zulch, Texas
Current Conditions -  °F | °C
As of 10:15 AM on Monday 22 Dec 2014 (Local Time) from KCFD Reporting Station
Scattered Clouds Scattered Clouds  
Wind Chill: 64°   Ceiling: Unl
Heat Index: 64°   Visibility: 10mi
Dew Point: 56°   Wind: 17mph
Humidity: 76%   Direction: 200°SSW
Pressure: 29.73"   Gusts: 23mph
Location:  30.92°N, 96.11°W
Report Text: KCFD 221615Z AUTO 20015G20KT 10SM SCT015 18/13 A2973 RMK AO2 T01760133
Loading
Personal Weather Stations






























Interactive Weather Map New forecast layout! Learn more

10-Day Weather Forecast

Advertisements
Track Severe Weather on mobile